Time;durP1;ratioP1;P1;durP2;ratioP2;P2;SDS_P1;SDS_P2;PMS_P1;PMS_P2;Temp;Humidity;BMP_temperature;BMP_pressure;BME280_temperature;BME280_humidity;BME280_pressure;Samples;Min_cycle;Max_cycle;Signal;HPM_P1;HPM_P2
2022/04/22 00:01:15;;;;;;;1.87;1.73;;;18.30;58.40;;;;;;5071132;28;20448;-67
2022/04/22 00:03:44;;;;;;;1.80;1.70;;;18.30;58.30;;;;;;5052840;28;20507;-68
2022/04/22 00:06:13;;;;;;;4.10;1.83;;;18.30;58.50;;;;;;5054721;28;20438;-67
2022/04/22 00:08:41;;;;;;;1.73;1.60;;;18.30;58.50;;;;;;5071952;28;20467;-68
2022/04/22 00:13:57;;;;;;;1.50;1.40;;;18.30;58.60;;;;;;5071882;28;20524;-66
2022/04/22 00:16:27;;;;;;;2.00;1.70;;;18.30;58.60;;;;;;5072514;28;21024;-68
2022/04/22 00:18:56;;;;;;;2.37;1.80;;;18.30;58.50;;;;;;5057204;28;20499;-66
2022/04/22 00:21:24;;;;;;;1.90;1.80;;;18.30;58.70;;;;;;5063809;28;20443;-68
2022/04/22 00:23:52;;;;;;;2.03;1.83;;;18.30;58.70;;;;;;5070893;28;20465;-67
2022/04/22 00:26:21;;;;;;;1.63;1.40;;;18.30;58.60;;;;;;5072510;28;20419;-67
2022/04/22 00:28:49;;;;;;;2.07;1.90;;;18.30;58.60;;;;;;5071388;28;20478;-66
2022/04/22 00:31:17;;;;;;;1.77;1.53;;;18.30;58.60;;;;;;5072221;28;20582;-68
2022/04/22 00:33:47;;;;;;;1.70;1.60;;;18.30;58.70;;;;;;5066607;28;20536;-67
2022/04/22 00:36:15;;;;;;;1.97;1.80;;;18.30;58.60;;;;;;5071885;28;20460;-69
2022/04/22 00:38:43;;;;;;;1.60;1.50;;;18.20;58.50;;;;;;5071449;28;20985;-68
2022/04/22 00:41:11;;;;;;;1.60;1.50;;;18.20;58.80;;;;;;5052041;28;20918;-67
2022/04/22 00:43:46;;;;;;;1.53;1.43;;;18.20;58.70;;;;;;5057188;28;20481;-68
2022/04/22 00:46:14;;;;;;;2.10;1.83;;;18.20;58.50;;;;;;5071877;28;20484;-67
2022/04/22 00:48:42;;;;;;;1.47;1.37;;;18.30;58.80;;;;;;5069359;28;20476;-68
2022/04/22 00:51:12;;;;;;;1.50;1.40;;;18.20;58.60;;;;;;5072149;28;20463;-67
2022/04/22 00:53:42;;;;;;;1.90;1.67;;;18.20;58.60;;;;;;5071282;28;20471;-68
2022/04/22 00:56:11;;;;;;;1.97;1.87;;;18.20;58.60;;;;;;5051975;28;20439;-68
2022/04/22 00:58:41;;;;;;;1.80;1.70;;;18.20;58.70;;;;;;5066361;28;20524;-68
2022/04/22 01:01:11;;;;;;;1.67;1.57;;;18.20;58.90;;;;;;5072084;28;20848;-67
2022/04/22 01:03:40;;;;;;;2.90;2.40;;;18.20;58.80;;;;;;5070045;28;20480;-67
2022/04/22 01:11:41;;;;;;;2.03;1.43;;;18.20;58.70;;;;;;5053849;28;20519;-68
2022/04/22 01:14:09;;;;;;;1.83;1.73;;;18.20;58.60;;;;;;5071651;28;20442;-67
2022/04/22 01:16:37;;;;;;;2.00;1.60;;;18.20;58.60;;;;;;5070872;28;20475;-68
2022/04/22 01:19:05;;;;;;;1.83;1.63;;;18.20;58.70;;;;;;5070424;28;20431;-68
2022/04/22 01:21:34;;;;;;;1.73;1.40;;;18.20;58.70;;;;;;5071832;28;20435;-67
2022/04/22 01:24:02;;;;;;;1.93;1.80;;;18.20;58.80;;;;;;5068358;28;20504;-66
2022/04/22 01:26:30;;;;;;;2.33;2.13;;;18.10;58.70;;;;;;5060567;28;20435;-67
2022/04/22 01:28:59;;;;;;;1.47;1.37;;;18.10;58.70;;;;;;5070987;28;20471;-68
2022/04/22 01:31:27;;;;;;;2.53;1.50;;;18.10;58.70;;;;;;5071350;28;20429;-68
2022/04/22 01:33:56;;;;;;;1.67;1.57;;;18.10;58.70;;;;;;5068558;28;20527;-68
2022/04/22 01:36:24;;;;;;;3.27;1.73;;;18.10;58.70;;;;;;5071410;28;20856;-67
2022/04/22 01:38:54;;;;;;;1.73;1.63;;;18.10;58.80;;;;;;5069842;28;20551;-68
2022/04/22 01:41:22;;;;;;;1.60;1.50;;;18.10;58.70;;;;;;5067316;28;20427;-67
2022/04/22 01:43:50;;;;;;;2.17;1.83;;;18.10;58.80;;;;;;5070875;28;20470;-69
2022/04/22 01:46:19;;;;;;;2.37;2.17;;;18.10;58.90;;;;;;5071337;28;20801;-66
2022/04/22 01:48:47;;;;;;;1.87;1.57;;;18.10;58.70;;;;;;5060384;28;20540;-68
2022/04/22 01:51:15;;;;;;;1.70;1.50;;;18.10;58.70;;;;;;5068006;28;20441;-68
2022/04/22 01:53:44;;;;;;;1.93;1.73;;;18.10;58.80;;;;;;5075191;28;20999;-68
2022/04/22 01:56:14;;;;;;;1.63;1.53;;;18.10;60.20;;;;;;5068710;28;20446;-68
2022/04/22 01:58:43;;;;;;;1.70;1.60;;;18.10;58.90;;;;;;5074283;28;20974;-68
2022/04/22 02:01:11;;;;;;;1.77;1.67;;;18.10;58.90;;;;;;5075129;28;20482;-67
2022/04/22 02:03:39;;;;;;;1.93;1.73;;;18.10;59.00;;;;;;5070455;28;20536;-67
2022/04/22 02:06:08;;;;;;;2.03;1.70;;;18.10;59.10;;;;;;5074903;28;20422;-68
2022/04/22 02:08:37;;;;;;;1.60;1.50;;;18.10;59.10;;;;;;5073556;28;20465;-68
2022/04/22 02:11:05;;;;;;;1.67;1.57;;;18.10;59.20;;;;;;5072564;28;20442;-67
2022/04/22 02:13:36;;;;;;;1.87;1.77;;;18.00;59.10;;;;;;5073575;28;20470;-68
2022/04/22 02:16:07;;;;;;;1.77;1.67;;;18.00;59.00;;;;;;5074751;28;20495;-67
2022/04/22 02:18:38;;;;;;;2.43;2.00;;;18.00;59.10;;;;;;5062679;28;20470;-68
2022/04/22 02:21:07;;;;;;;2.00;1.60;;;18.00;59.10;;;;;;5055325;28;20844;-68
2022/04/22 02:23:35;;;;;;;1.73;1.63;;;18.00;59.10;;;;;;5054526;28;20463;-67
2022/04/22 02:26:05;;;;;;;1.73;1.63;;;18.00;59.20;;;;;;5073434;28;20442;-68
2022/04/22 02:28:34;;;;;;;1.73;1.50;;;18.00;59.20;;;;;;5073910;28;20473;-69
2022/04/22 02:31:04;;;;;;;2.23;2.07;;;18.00;59.20;;;;;;5074625;28;20422;-67
2022/04/22 02:33:33;;;;;;;2.17;1.87;;;18.00;59.10;;;;;;5057545;28;20470;-67
2022/04/22 02:36:02;;;;;;;1.90;1.77;;;18.00;60.40;;;;;;5070313;28;20928;-66
2022/04/22 02:38:31;;;;;;;2.10;1.90;;;18.00;59.10;;;;;;5074037;28;20452;-68
2022/04/22 02:46:33;;;;;;;2.50;2.30;;;18.00;59.10;;;;;;5073264;28;20480;-68
2022/04/22 02:49:02;;;;;;;1.57;1.47;;;18.00;59.20;;;;;;5061721;28;20470;-68
2022/04/22 02:51:30;;;;;;;1.70;1.43;;;17.90;59.00;;;;;;5074284;28;20766;-66
2022/04/22 02:53:58;;;;;;;1.90;1.80;;;17.90;59.10;;;;;;5071292;28;20516;-67
2022/04/22 02:56:28;;;;;;;2.03;1.83;;;17.90;59.10;;;;;;5071057;28;20560;-68
2022/04/22 02:58:58;;;;;;;3.03;2.17;;;18.00;59.10;;;;;;5073063;28;20458;-67
2022/04/22 03:01:26;;;;;;;2.33;2.07;;;17.90;59.10;;;;;;5073747;28;20487;-67
2022/04/22 03:03:55;;;;;;;2.13;1.93;;;17.90;59.10;;;;;;5062882;28;20489;-67
2022/04/22 03:06:26;;;;;;;2.90;1.67;;;17.90;59.10;;;;;;5086530;28;20414;-67
2022/04/22 03:08:54;;;;;;;2.13;1.90;;;17.90;59.20;;;;;;5070339;28;20466;-68
2022/04/22 03:11:23;;;;;;;1.90;1.70;;;17.90;59.10;;;;;;5054019;28;20419;-66
2022/04/22 03:13:51;;;;;;;2.27;2.07;;;17.90;59.30;;;;;;5060599;28;20613;-68
2022/04/22 03:16:24;;;;;;;2.30;1.90;;;17.90;59.30;;;;;;5073788;28;20947;-67
2022/04/22 03:18:52;;;;;;;2.00;1.90;;;17.90;59.20;;;;;;5067132;28;20473;-68
2022/04/22 03:21:22;;;;;;;2.37;1.93;;;17.90;59.30;;;;;;5074208;28;20422;-66
2022/04/22 03:23:50;;;;;;;1.90;1.70;;;17.90;59.40;;;;;;5072081;28;20473;-67
2022/04/22 03:26:19;;;;;;;1.73;1.63;;;17.90;59.40;;;;;;5052227;28;20444;-66
2022/04/22 03:28:49;;;;;;;2.27;1.93;;;17.90;59.40;;;;;;5068403;28;20502;-67
2022/04/22 03:31:17;;;;;;;1.90;1.70;;;17.80;59.40;;;;;;5073756;28;20430;-67
2022/04/22 03:33:47;;;;;;;2.13;1.60;;;17.90;59.40;;;;;;5069354;28;20919;-68
2022/04/22 03:36:15;;;;;;;1.80;1.70;;;17.80;59.40;;;;;;5055846;28;20928;-67
2022/04/22 03:38:49;;;;;;;1.60;1.50;;;17.80;59.40;;;;;;5072516;28;20457;-66
2022/04/22 03:41:17;;;;;;;2.13;1.60;;;17.80;59.40;;;;;;5055878;28;20490;-67
2022/04/22 03:43:45;;;;;;;1.73;1.63;;;17.80;59.40;;;;;;5072779;28;20462;-67
2022/04/22 03:46:13;;;;;;;3.00;2.20;;;17.80;59.40;;;;;;5072723;28;20438;-68
2022/04/22 03:48:42;;;;;;;1.77;1.67;;;17.80;59.50;;;;;;5071734;28;21025;-67
2022/04/22 03:51:11;;;;;;;2.00;1.80;;;17.80;59.60;;;;;;5071962;28;20507;-67
2022/04/22 03:53:41;;;;;;;2.20;2.00;;;17.80;59.50;;;;;;5072601;28;20520;-67
2022/04/22 03:58:54;;;;;;;2.00;1.90;;;17.80;59.70;;;;;;5072168;28;20520;-67
2022/04/22 04:01:22;;;;;;;3.23;2.17;;;17.80;59.70;;;;;;5072772;28;20431;-67
2022/04/22 04:03:50;;;;;;;1.87;1.67;;;17.80;59.70;;;;;;5060179;28;20540;-68
2022/04/22 04:06:20;;;;;;;2.03;1.87;;;17.80;59.90;;;;;;5073109;28;20481;-68
2022/04/22 04:15:57;;;;;;;2.40;2.20;;;17.70;59.70;;;;;;5070848;28;20975;-68
2022/04/22 04:17:10;;;;;;;1.80;1.70;;;17.70;59.70;;;;;;5071953;28;20805;-68
2022/04/22 04:25:10;;;;;;;1.67;1.43;;;17.70;60.00;;;;;;5068503;28;20454;-65
2022/04/22 04:27:39;;;;;;;1.67;1.57;;;17.70;60.10;;;;;;5071043;28;20450;-67
2022/04/22 04:30:09;;;;;;;1.60;1.50;;;17.70;60.10;;;;;;5063199;28;20516;-67
2022/04/22 04:32:37;;;;;;;2.63;1.60;;;17.70;60.00;;;;;;5069756;28;20527;-66
2022/04/22 04:35:06;;;;;;;2.00;1.90;;;17.70;60.00;;;;;;5071643;28;20505;-68
2022/04/22 04:37:41;;;;;;;1.90;1.70;;;17.70;60.10;;;;;;5071897;28;20458;-68
2022/04/22 04:40:09;;;;;;;1.93;1.83;;;17.70;60.20;;;;;;5060476;28;20435;-69
2022/04/22 04:42:37;;;;;;;1.67;1.57;;;17.70;60.30;;;;;;5052011;28;20459;-68
2022/04/22 04:45:07;;;;;;;1.80;1.70;;;17.70;60.00;;;;;;5052041;28;20447;-67
2022/04/22 04:47:40;;;;;;;2.03;1.93;;;17.70;60.10;;;;;;5051425;28;20477;-67
2022/04/22 04:50:10;;;;;;;1.50;1.40;;;17.60;59.90;;;;;;5052347;28;20502;-68
2022/04/22 04:52:40;;;;;;;1.90;1.70;;;17.60;59.90;;;;;;5071656;28;20462;-67
2022/04/22 04:55:10;;;;;;;2.70;1.90;;;17.60;59.90;;;;;;5059008;28;20521;-68
2022/04/22 04:57:38;;;;;;;2.17;1.97;;;17.60;60.10;;;;;;5051403;28;20463;-68
2022/04/22 05:00:08;;;;;;;2.23;2.03;;;17.60;59.90;;;;;;5061778;28;20838;-68
2022/04/22 05:02:36;;;;;;;1.90;1.70;;;17.60;59.90;;;;;;5071718;28;20533;-67
2022/04/22 05:05:07;;;;;;;1.87;1.77;;;17.60;59.90;;;;;;5066141;28;20471;-67
2022/04/22 05:07:35;;;;;;;1.90;1.80;;;17.60;59.90;;;;;;5051557;28;20454;-66
2022/04/22 05:10:05;;;;;;;1.83;1.67;;;17.60;60.20;;;;;;5051697;28;20861;-66
2022/04/22 05:12:34;;;;;;;1.70;1.50;;;17.60;60.20;;;;;;5051183;28;20463;-67
2022/04/22 05:15:02;;;;;;;1.60;1.50;;;17.60;60.30;;;;;;5051914;28;20543;-68
2022/04/22 05:17:30;;;;;;;2.33;1.80;;;17.60;60.10;;;;;;5051455;28;20510;-67
2022/04/22 05:19:58;;;;;;;1.77;1.63;;;17.60;60.30;;;;;;5051713;28;20465;-67
2022/04/22 05:22:27;;;;;;;2.43;2.23;;;17.60;60.40;;;;;;5051141;28;20451;-67
2022/04/22 05:24:55;;;;;;;2.13;2.03;;;17.60;60.10;;;;;;5059952;28;20481;-69
2022/04/22 05:27:24;;;;;;;1.70;1.60;;;17.60;60.30;;;;;;5070810;28;20797;-67
2022/04/22 05:32:38;;;;;;;2.23;2.03;;;17.60;60.30;;;;;;5068740;28;20490;-66
2022/04/22 05:35:07;;;;;;;2.40;2.20;;;17.50;60.20;;;;;;5051252;28;20453;-67
2022/04/22 05:37:50;;;;;;;2.97;1.63;;;17.50;60.40;;;;;;5051049;28;21094;-67
2022/04/22 05:40:20;;;;;;;2.40;1.87;;;17.50;60.30;;;;;;5051711;28;20520;-68
2022/04/22 05:42:53;;;;;;;2.23;2.03;;;17.50;60.60;;;;;;5051249;28;20828;-67
2022/04/22 05:45:22;;;;;;;2.07;1.93;;;17.50;60.40;;;;;;5060176;28;20496;-67
2022/04/22 05:47:52;;;;;;;1.97;1.80;;;17.50;60.50;;;;;;5050687;28;21044;-67
2022/04/22 05:50:21;;;;;;;2.20;2.10;;;17.50;60.50;;;;;;5051387;28;20829;-68
2022/04/22 05:52:52;;;;;;;2.77;2.30;;;17.50;60.50;;;;;;5066517;28;20471;-66
2022/04/22 05:55:22;;;;;;;2.43;2.23;;;17.50;60.50;;;;;;5063055;28;20462;-66
2022/04/22 05:57:53;;;;;;;2.37;2.17;;;17.50;60.60;;;;;;5070901;28;20520;-68
2022/04/22 06:00:23;;;;;;;2.17;2.03;;;17.50;60.60;;;;;;5070134;28;20924;-67
2022/04/22 06:02:52;;;;;;;2.40;2.20;;;17.50;60.70;;;;;;5070052;28;20512;-67
2022/04/22 06:05:22;;;;;;;3.00;2.70;;;17.50;60.80;;;;;;5071040;28;20858;-66
2022/04/22 06:10:31;;;;;;;3.13;2.43;;;17.50;60.90;;;;;;5070829;28;20458;-67
2022/04/22 06:10:40;;;;;;;3.00;2.70;;;17.50;60.80;;;;;;5069622;28;20507;-66
2022/04/22 06:13:09;;;;;;;2.43;2.23;;;17.50;60.70;;;;;;5070951;28;20462;-67
2022/04/22 06:15:38;;;;;;;2.43;2.23;;;17.50;60.80;;;;;;5066677;28;20463;-67
2022/04/22 06:18:06;;;;;;;2.77;2.57;;;17.50;61.00;;;;;;5056725;28;20529;-68
2022/04/22 06:20:34;;;;;;;2.30;2.10;;;17.50;61.10;;;;;;5051236;28;20455;-67
2022/04/22 06:23:03;;;;;;;2.57;2.37;;;17.40;60.60;;;;;;5067151;28;20466;-67
2022/04/22 06:25:31;;;;;;;2.37;2.17;;;17.50;60.70;;;;;;5055706;28;20821;-67
2022/04/22 06:27:59;;;;;;;2.40;2.20;;;17.40;60.60;;;;;;5050610;28;20964;-67
2022/04/22 06:30:29;;;;;;;2.10;2.00;;;17.40;60.60;;;;;;5051172;28;20500;-66
2022/04/22 06:32:58;;;;;;;3.40;2.87;;;17.40;60.70;;;;;;5053724;28;20479;-66
2022/04/22 06:35:28;;;;;;;4.03;3.63;;;17.40;60.50;;;;;;5073664;28;20863;-66
2022/04/22 06:37:57;;;;;;;2.40;2.20;;;17.40;60.00;;;;;;5093388;28;20470;-67
2022/04/22 06:46:00;;;;;;;2.30;2.10;;;17.40;60.30;;;;;;5071750;28;20496;-66
2022/04/22 06:48:30;;;;;;;3.23;2.93;;;17.40;60.20;;;;;;5068989;28;21187;-67
2022/04/22 06:51:17;;;;;;;2.40;2.20;;;17.40;60.20;;;;;;5073542;28;21003;-65
2022/04/22 06:53:46;;;;;;;2.30;2.10;;;17.40;60.40;;;;;;5072597;28;20555;-67
2022/04/22 06:56:15;;;;;;;2.93;2.63;;;17.40;60.40;;;;;;5072885;28;20718;-67
2022/04/22 06:58:44;;;;;;;6.80;5.40;;;17.40;60.10;;;;;;5072487;28;20462;-68
2022/04/22 07:01:14;;;;;;;5.07;4.43;;;17.40;59.60;;;;;;5074404;28;20437;-67
2022/04/22 07:04:03;;;;;;;4.70;4.30;;;17.40;59.80;;;;;;5060306;28;20494;-66
2022/04/22 07:06:31;;;;;;;5.17;4.30;;;17.40;59.90;;;;;;5074219;28;20895;-67
2022/04/22 07:09:00;;;;;;;3.60;3.30;;;17.40;59.80;;;;;;5071624;28;20862;-67
2022/04/22 07:11:30;;;;;;;3.50;3.20;;;17.40;59.90;;;;;;5069274;28;20459;-67
2022/04/22 07:14:00;;;;;;;3.43;2.90;;;17.50;60.10;;;;;;5053244;28;20451;-68
2022/04/22 07:16:30;;;;;;;3.83;3.30;;;17.50;60.00;;;;;;5053713;28;20442;-67
2022/04/22 07:19:00;;;;;;;3.50;3.20;;;17.50;60.00;;;;;;5053262;28;20466;-67
2022/04/22 07:21:28;;;;;;;3.13;2.83;;;17.50;61.20;;;;;;5052531;28;20820;-66
2022/04/22 07:23:58;;;;;;;3.60;2.73;;;17.50;59.80;;;;;;5053224;28;20508;-67
2022/04/22 07:26:30;;;;;;;3.00;2.70;;;17.50;59.80;;;;;;5053884;28;20536;-67
2022/04/22 07:29:00;;;;;;;3.03;2.83;;;17.50;59.80;;;;;;5053246;28;20528;-68
2022/04/22 07:31:32;;;;;;;2.70;2.37;;;17.50;59.80;;;;;;5053526;28;20459;-68
2022/04/22 07:34:01;;;;;;;3.10;2.80;;;17.50;60.00;;;;;;5052649;28;20891;-66
2022/04/22 07:36:30;;;;;;;2.70;2.50;;;17.50;60.00;;;;;;5053448;28;20940;-67
2022/04/22 07:38:59;;;;;;;2.90;2.70;;;17.50;59.90;;;;;;5052742;28;20467;-68
2022/04/22 07:41:30;;;;;;;3.20;2.53;;;17.50;59.80;;;;;;5053327;28;20917;-67
2022/04/22 07:46:57;;;;;;;2.37;2.13;;;17.50;59.80;;;;;;5052691;28;20431;-68
2022/04/22 07:49:27;;;;;;;3.60;3.30;;;17.50;59.80;;;;;;5053306;28;20478;-66
2022/04/22 07:51:55;;;;;;;3.13;2.93;;;17.50;59.70;;;;;;5052817;28;20498;-67
2022/04/22 07:54:27;;;;;;;3.57;3.27;;;17.60;59.70;;;;;;5057413;28;20823;-68
2022/04/22 07:56:56;;;;;;;2.70;2.50;;;17.60;59.80;;;;;;5088195;28;20484;-68
2022/04/22 07:59:28;;;;;;;3.03;2.30;;;17.50;59.70;;;;;;5072942;28;20426;-68
2022/04/22 08:01:59;;;;;;;3.73;2.87;;;17.60;59.80;;;;;;5072640;28;20824;-66
2022/04/22 08:04:28;;;;;;;3.20;2.90;;;17.60;60.90;;;;;;5066671;28;20573;-68
2022/04/22 08:06:57;;;;;;;3.53;2.93;;;17.60;59.70;;;;;;5072547;28;20419;-68
2022/04/22 08:09:46;;;;;;;2.93;2.73;;;17.50;59.60;;;;;;5064213;28;20860;-68
2022/04/22 08:12:16;;;;;;;3.10;2.67;;;17.50;59.60;;;;;;5052418;28;20530;-68
2022/04/22 08:14:44;;;;;;;3.00;2.73;;;17.50;59.50;;;;;;5052572;28;20447;-68
2022/04/22 08:17:15;;;;;;;2.80;2.60;;;17.60;59.70;;;;;;5052342;28;20467;-66
2022/04/22 08:19:46;;;;;;;3.20;2.70;;;17.60;59.70;;;;;;5052501;28;20856;-68
2022/04/22 08:22:14;;;;;;;3.30;2.70;;;17.60;59.70;;;;;;5051984;28;20467;-66
2022/04/22 08:24:42;;;;;;;3.10;2.80;;;17.50;59.60;;;;;;5052272;28;20860;-68
2022/04/22 08:27:11;;;;;;;2.93;2.73;;;17.50;59.50;;;;;;5052050;28;20973;-67
2022/04/22 08:29:39;;;;;;;2.90;2.60;;;17.50;59.60;;;;;;5052471;28;20427;-68
2022/04/22 08:32:07;;;;;;;3.10;2.80;;;17.50;59.60;;;;;;5051878;28;20545;-68
2022/04/22 08:34:37;;;;;;;2.90;2.70;;;17.50;59.70;;;;;;5051715;28;20459;-68
2022/04/22 08:37:05;;;;;;;3.00;2.70;;;17.50;59.70;;;;;;5052060;28;20513;-68
2022/04/22 08:39:33;;;;;;;2.90;2.60;;;17.50;59.70;;;;;;5052168;28;20470;-68
2022/04/22 08:42:02;;;;;;;3.30;3.00;;;17.50;59.70;;;;;;5051685;28;20458;-68
2022/04/22 08:44:51;;;;;;;2.60;2.40;;;17.40;59.70;;;;;;5051935;28;20454;-67
2022/04/22 08:50:13;;;;;;;3.40;3.10;;;17.40;59.70;;;;;;5052281;28;20424;-68
2022/04/22 08:52:43;;;;;;;3.43;3.13;;;17.40;59.70;;;;;;5051690;28;20557;-67
2022/04/22 08:55:31;;;;;;;3.60;3.30;;;17.40;59.70;;;;;;5051298;28;20546;-67
2022/04/22 08:58:23;;;;;;;3.77;3.30;;;17.40;59.80;;;;;;5051541;28;20509;-67
2022/04/22 09:01:11;;;;;;;3.37;2.73;;;17.40;59.80;;;;;;5052347;28;20683;-68
2022/04/22 09:03:58;;;;;;;2.80;2.57;;;17.40;59.90;;;;;;5051283;28;20498;-67
2022/04/22 09:06:50;;;;;;;3.00;2.70;;;17.30;59.80;;;;;;5064910;28;20928;-67
2022/04/22 09:09:39;;;;;;;3.27;2.97;;;17.30;60.00;;;;;;5052331;28;20493;-67
2022/04/22 09:12:28;;;;;;;2.80;2.60;;;17.30;60.00;;;;;;5051273;28;20540;-68
2022/04/22 09:15:14;;;;;;;3.80;3.30;;;17.30;59.90;;;;;;5051955;28;20505;-68
2022/04/22 09:18:11;;;;;;;3.50;3.20;;;17.30;61.20;;;;;;5051272;28;20470;-68
2022/04/22 09:21:02;;;;;;;2.87;2.67;;;17.30;60.00;;;;;;5052165;28;20406;-68
2022/04/22 09:23:50;;;;;;;2.90;2.70;;;17.30;60.00;;;;;;5050856;28;20998;-67
2022/04/22 09:26:22;;;;;;;3.73;3.33;;;17.30;60.00;;;;;;5051509;28;20489;-67
2022/04/22 09:28:58;;;;;;;3.30;2.80;;;17.30;60.10;;;;;;5051117;28;20467;-67
2022/04/22 09:31:27;;;;;;;3.67;3.37;;;17.30;60.00;;;;;;5055485;28;20843;-67
2022/04/22 09:33:56;;;;;;;3.83;3.33;;;17.30;59.90;;;;;;5051235;28;20507;-67
2022/04/22 09:44:57;;;;;;;3.40;3.10;;;17.30;60.00;;;;;;5051341;28;20479;-67
2022/04/22 09:47:30;;;;;;;3.90;3.50;;;17.20;59.90;;;;;;5050808;28;20542;-67
2022/04/22 09:49:59;;;;;;;4.30;3.90;;;17.20;59.60;;;;;;5062987;28;20862;-68
2022/04/22 09:52:27;;;;;;;3.60;3.30;;;17.20;59.70;;;;;;5071004;28;20872;-68
2022/04/22 09:54:58;;;;;;;4.40;3.43;;;17.30;59.60;;;;;;5061337;28;20868;-68
2022/04/22 09:57:52;;;;;;;3.67;3.37;;;17.20;59.60;;;;;;5050770;28;20459;-67
2022/04/22 10:00:21;;;;;;;3.40;3.10;;;17.20;59.70;;;;;;5050047;28;20470;-68
2022/04/22 10:02:52;;;;;;;4.37;3.80;;;17.20;59.80;;;;;;5050976;28;20451;-67
2022/04/22 10:05:22;;;;;;;4.43;4.03;;;17.20;59.80;;;;;;5081823;28;20470;-67
2022/04/22 10:07:52;;;;;;;5.97;4.77;;;17.20;59.20;;;;;;5071650;28;20515;-68
2022/04/22 10:10:26;;;;;;;4.90;3.83;;;17.20;58.90;;;;;;5071985;28;20442;-68
2022/04/22 10:12:57;;;;;;;5.63;5.07;;;17.20;58.70;;;;;;5074505;28;20454;-68
2022/04/22 10:15:29;;;;;;;6.20;5.60;;;17.20;58.30;;;;;;5074460;28;20497;-67
2022/04/22 10:17:58;;;;;;;5.73;4.93;;;17.20;58.40;;;;;;5074438;28;20465;-67
2022/04/22 10:20:46;;;;;;;5.80;4.87;;;17.20;58.50;;;;;;5067430;28;20413;-68
2022/04/22 10:23:14;;;;;;;4.50;4.10;;;17.30;58.60;;;;;;5074401;28;20499;-67
2022/04/22 10:25:44;;;;;;;4.43;4.00;;;17.30;58.80;;;;;;5058348;28;20889;-68
2022/04/22 10:28:13;;;;;;;3.83;3.53;;;17.30;58.50;;;;;;5072426;28;20488;-67
2022/04/22 10:30:43;;;;;;;3.93;3.60;;;17.30;58.60;;;;;;5074469;28;20426;-67
2022/04/22 10:33:12;;;;;;;3.80;3.50;;;17.40;58.60;;;;;;5073210;28;20470;-68
2022/04/22 10:35:42;;;;;;;4.97;4.43;;;17.40;58.60;;;;;;5071618;28;20508;-69
2022/04/22 10:38:28;;;;;;;4.40;3.73;;;17.40;58.40;;;;;;5073976;28;20883;-67
2022/04/22 10:41:01;;;;;;;5.10;4.13;;;17.40;58.60;;;;;;5054378;28;20840;-67
2022/04/22 10:43:31;;;;;;;4.17;3.87;;;17.40;58.40;;;;;;5055877;28;20466;-68
2022/04/22 10:49:12;;;;;;;4.40;4.00;;;17.40;58.20;;;;;;5067665;28;20565;-67
2022/04/22 10:52:09;;;;;;;4.00;3.67;;;17.40;58.60;;;;;;5072852;28;20422;-68
2022/04/22 10:55:11;;;;;;;3.73;3.43;;;17.40;58.70;;;;;;5067184;28;20517;-67
2022/04/22 10:57:42;;;;;;;3.60;3.30;;;17.40;58.80;;;;;;5072741;28;20484;-67
2022/04/22 11:00:27;;;;;;;4.07;3.77;;;17.40;58.90;;;;;;5073208;28;20411;-67
2022/04/22 11:03:09;;;;;;;4.60;4.20;;;17.40;58.60;;;;;;5073517;28;20466;-68
2022/04/22 11:05:46;;;;;;;4.03;3.40;;;17.50;58.70;;;;;;5059157;28;20463;-68
2022/04/22 11:08:19;;;;;;;3.80;3.50;;;17.50;58.60;;;;;;5053579;28;20548;-68
2022/04/22 11:11:03;;;;;;;3.30;3.00;;;17.50;58.80;;;;;;5054180;28;20443;-67
2022/04/22 11:13:34;;;;;;;4.60;4.07;;;17.50;58.60;;;;;;5073453;28;20545;-66
2022/04/22 11:16:07;;;;;;;3.80;3.50;;;17.50;58.40;;;;;;5073439;28;20431;-67
2022/04/22 11:18:36;;;;;;;4.40;2.90;;;17.50;58.60;;;;;;5061508;28;20577;-68
2022/04/22 11:21:05;;;;;;;3.90;3.10;;;17.50;58.60;;;;;;5056737;28;20454;-67
2022/04/22 11:23:38;;;;;;;4.03;3.63;;;17.50;58.90;;;;;;5073366;28;20470;-67
2022/04/22 11:26:07;;;;;;;4.20;3.80;;;17.50;58.20;;;;;;5058338;28;20441;-68
2022/04/22 11:28:38;;;;;;;5.10;3.93;;;17.50;58.20;;;;;;5073308;28;20466;-65
2022/04/22 11:31:07;;;;;;;4.10;3.70;;;17.50;58.40;;;;;;5073226;28;20920;-68
2022/04/22 11:33:46;;;;;;;4.27;3.97;;;17.50;58.50;;;;;;5057961;28;20473;-68
2022/04/22 11:36:14;;;;;;;4.10;3.70;;;17.50;58.30;;;;;;5061197;28;20434;-66
2022/04/22 11:38:47;;;;;;;4.87;4.47;;;17.50;57.80;;;;;;5070893;28;20470;-67
2022/04/22 11:41:16;;;;;;;3.83;3.50;;;17.50;58.30;;;;;;5053797;28;20951;-67
2022/04/22 11:43:46;;;;;;;4.93;4.00;;;17.50;58.00;;;;;;5052814;28;20505;-67
2022/04/22 11:46:16;;;;;;;3.50;3.20;;;17.50;58.00;;;;;;5053267;28;20424;-67
2022/04/22 11:48:46;;;;;;;3.87;3.57;;;17.50;58.30;;;;;;5056338;28;20501;-68
2022/04/22 11:51:19;;;;;;;3.30;3.00;;;17.50;58.30;;;;;;5070572;28;20443;-68
2022/04/22 11:53:49;;;;;;;4.53;4.13;;;17.50;58.30;;;;;;5072071;28;20501;-67
2022/04/22 11:56:19;;;;;;;4.30;3.80;;;17.50;57.70;;;;;;5072402;28;20484;-67
2022/04/22 11:58:52;;;;;;;4.10;3.80;;;17.60;58.30;;;;;;5072006;28;20474;-68
2022/04/22 12:06:57;;;;;;;3.83;3.53;;;17.60;58.50;;;;;;5072482;28;20831;-67
2022/04/22 12:09:26;;;;;;;4.47;4.07;;;17.60;58.10;;;;;;5067193;28;20435;-66
2022/04/22 12:11:58;;;;;;;4.50;4.10;;;17.60;58.50;;;;;;5062705;28;20812;-67
2022/04/22 12:14:30;;;;;;;3.90;3.50;;;17.60;58.30;;;;;;5071636;28;20468;-67
2022/04/22 12:16:59;;;;;;;4.37;3.97;;;17.60;58.10;;;;;;5071518;28;20883;-67
2022/04/22 12:19:29;;;;;;;4.07;3.50;;;17.60;58.10;;;;;;5064087;28;20979;-68
2022/04/22 12:21:59;;;;;;;4.33;4.03;;;17.60;58.40;;;;;;5062016;28;20434;-67
2022/04/22 12:24:27;;;;;;;4.30;4.00;;;17.60;58.10;;;;;;5066621;28;20529;-67
2022/04/22 12:26:55;;;;;;;4.47;4.10;;;17.60;57.70;;;;;;5064660;28;20430;-67
2022/04/22 12:29:31;;;;;;;4.23;3.83;;;17.60;57.40;;;;;;5072574;28;20429;-67
2022/04/22 12:31:59;;;;;;;4.03;3.73;;;17.60;57.80;;;;;;5070989;28;20469;-66
2022/04/22 12:34:30;;;;;;;4.00;3.70;;;17.60;57.50;;;;;;5053880;28;20475;-66
2022/04/22 12:37:00;;;;;;;3.87;3.57;;;17.60;57.80;;;;;;5064670;28;20536;-67
2022/04/22 12:39:36;;;;;;;4.03;3.73;;;17.60;57.80;;;;;;5066565;28;20848;-67
2022/04/22 12:42:06;;;;;;;3.63;3.33;;;17.60;57.60;;;;;;5064803;28;20450;-67
2022/04/22 12:44:35;;;;;;;4.93;4.53;;;17.60;57.70;;;;;;5071739;28;20439;-67
2022/04/22 12:52:45;;;;;;;4.03;3.73;;;17.60;57.30;;;;;;5051794;28;20455;-66
2022/04/22 12:55:17;;;;;;;3.70;3.40;;;17.60;57.20;;;;;;5057471;28;20469;-66
2022/04/22 12:57:57;;;;;;;3.87;3.57;;;17.60;57.50;;;;;;5071313;28;20519;-66
2022/04/22 13:00:27;;;;;;;4.87;4.37;;;17.60;57.80;;;;;;5071447;28;20484;-67
2022/04/22 13:03:06;;;;;;;5.73;5.33;;;17.60;57.20;;;;;;5066069;28;20470;-65
2022/04/22 13:05:34;;;;;;;5.20;4.80;;;17.60;57.50;;;;;;5059220;28;20462;-67
2022/04/22 13:08:10;;;;;;;4.07;3.77;;;17.60;57.50;;;;;;5071025;28;20549;-66
2022/04/22 13:10:59;;;;;;;3.73;3.47;;;17.60;57.50;;;;;;5063101;28;20440;-67
2022/04/22 13:13:45;;;;;;;4.37;3.97;;;17.60;57.40;;;;;;5061665;28;20462;-65
2022/04/22 13:16:34;;;;;;;4.13;3.80;;;17.60;57.80;;;;;;5069530;28;20523;-66
2022/04/22 13:19:25;;;;;;;4.70;4.23;;;17.60;58.90;;;;;;5059076;28;20867;-65
2022/04/22 13:22:11;;;;;;;6.63;4.37;;;17.60;57.20;;;;;;5061685;28;20466;-65
2022/04/22 13:24:58;;;;;;;5.40;4.90;;;17.60;57.60;;;;;;5061387;28;20563;-66
2022/04/22 13:27:46;;;;;;;4.40;4.10;;;17.60;56.90;;;;;;5068376;28;20484;-66
2022/04/22 13:30:32;;;;;;;5.13;4.73;;;17.60;58.20;;;;;;5064174;28;21153;-67
2022/04/22 13:33:21;;;;;;;4.90;3.63;;;17.60;56.20;;;;;;5064178;28;20473;-65
2022/04/22 13:36:15;;;;;;;4.30;3.90;;;17.60;57.00;;;;;;5064733;28;21069;-66
2022/04/22 13:39:02;;;;;;;5.00;4.60;;;17.60;57.20;;;;;;5060886;28;20937;-66
2022/04/22 13:41:49;;;;;;;4.73;4.33;;;17.60;57.20;;;;;;5066506;28;20512;-65
2022/04/22 13:52:55;;;;;;;4.33;4.03;;;17.60;57.50;;;;;;5086369;28;20511;-65
2022/04/22 13:55:23;;;;;;;4.33;3.93;;;17.70;57.10;;;;;;5066107;28;20523;-65
2022/04/22 13:57:51;;;;;;;3.80;3.50;;;17.60;57.70;;;;;;5066450;28;20764;-65
2022/04/22 14:00:25;;;;;;;4.57;4.17;;;17.60;57.70;;;;;;5066223;28;20502;-67
2022/04/22 14:02:54;;;;;;;4.50;3.70;;;17.70;57.50;;;;;;5068759;28;20485;-65
2022/04/22 14:05:23;;;;;;;4.80;4.40;;;17.70;57.60;;;;;;5069282;28;20474;-65
2022/04/22 14:07:51;;;;;;;5.57;5.07;;;17.70;56.80;;;;;;5069595;28;20478;-66
2022/04/22 14:10:20;;;;;;;4.20;3.83;;;17.70;56.90;;;;;;5062622;28;20461;-66
2022/04/22 14:12:49;;;;;;;3.50;3.20;;;17.70;57.40;;;;;;5074681;28;20489;-67
2022/04/22 14:15:17;;;;;;;4.83;4.47;;;17.70;57.70;;;;;;5073549;28;20469;-67
2022/04/22 14:17:48;;;;;;;4.60;4.20;;;17.70;56.90;;;;;;5072154;28;20493;-66
2022/04/22 14:20:17;;;;;;;4.53;4.13;;;17.70;56.50;;;;;;5061654;28;20443;-66
2022/04/22 14:22:46;;;;;;;5.03;4.63;;;17.70;57.20;;;;;;5065798;28;20489;-65
2022/04/22 14:25:17;;;;;;;4.40;4.00;;;17.70;56.50;;;;;;5060010;28;20489;-68